createdAt,value
2022-08-13T00:01:34.531Z,100720.88
2022-08-13T00:07:05.488Z,100719.81
2022-08-13T00:12:31.599Z,100725.47
2022-08-13T00:17:50.303Z,100726.53
2022-08-13T00:23:01.779Z,100729.69
2022-08-13T00:28:06.270Z,100735.09
2022-08-13T00:33:14.394Z,100731.47
2022-08-13T00:38:20.260Z,100732.00
2022-08-13T00:43:23.031Z,100725.97
2022-08-13T00:48:52.581Z,100720.47
2022-08-13T00:54:10.248Z,100720.97
2022-08-13T00:59:15.362Z,100721.59
2022-08-13T01:04:26.963Z,100721.06
2022-08-13T01:10:15.879Z,100717.66
2022-08-13T01:14:56.651Z,100731.41
2022-08-13T01:20:02.915Z,100727.78
2022-08-13T01:25:07.962Z,100716.72
2022-08-13T01:30:17.510Z,100713.69
2022-08-13T01:35:21.317Z,100712.31
2022-08-13T01:40:25.488Z,100698.16
2022-08-13T01:45:30.116Z,100691.38
2022-08-13T01:50:35.370Z,100700.28
2022-08-13T01:56:05.812Z,100688.59
2022-08-13T02:01:09.539Z,100688.91
2022-08-13T02:06:23.490Z,100685.75
2022-08-13T02:11:32.688Z,100683.38
2022-08-13T02:16:37.062Z,100681.69
2022-08-13T02:21:45.443Z,100686.75
2022-08-13T02:26:52.878Z,100688.72
2022-08-13T02:32:05.739Z,100687.38
2022-08-13T02:37:32.888Z,100684.38
2022-08-13T02:42:46.559Z,100681.47
2022-08-13T02:47:49.430Z,100681.75
2022-08-13T02:52:58.995Z,100700.47
2022-08-13T02:58:04.685Z,100694.59
2022-08-13T03:03:11.274Z,100692.53
2022-08-13T03:08:36.760Z,100692.44
2022-08-13T03:13:44.540Z,100700.06
2022-08-13T03:18:53.136Z,100698.88
2022-08-13T03:23:56.819Z,100694.44
2022-08-13T03:29:00.658Z,100695.22
2022-08-13T03:34:04.497Z,100694.00
2022-08-13T03:39:07.512Z,100698.28
2022-08-13T03:44:12.351Z,100694.41
2022-08-13T03:49:15.071Z,100691.41
2022-08-13T03:54:17.742Z,100689.53
2022-08-13T03:59:33.705Z,100682.75
2022-08-13T04:04:49.769Z,100692.66
2022-08-13T04:09:55.483Z,100684.25
2022-08-13T04:15:02.324Z,100691.50
2022-08-13T04:20:06.359Z,100703.44
2022-08-13T04:25:27.721Z,100705.38
2022-08-13T04:30:42.570Z,100709.16
2022-08-13T04:35:53.071Z,100707.69
2022-08-13T04:41:03.689Z,100698.06
2022-08-13T04:46:08.135Z,100699.06
2022-08-13T04:51:10.905Z,100702.72
2022-08-13T04:56:18.606Z,100706.22
2022-08-13T05:01:47.445Z,100711.06
2022-08-13T05:06:45.618Z,100724.47
2022-08-13T05:12:01.968Z,100719.94
2022-08-13T05:17:14.035Z,100712.16
2022-08-13T05:22:29.761Z,100709.75
2022-08-13T05:27:33.461Z,100707.13
2022-08-13T05:32:47.405Z,100702.09
2022-08-13T05:38:19.509Z,100706.31
2022-08-13T05:43:18.474Z,100714.09
2022-08-13T05:48:27.996Z,100705.00
2022-08-13T05:53:40.684Z,100700.63
2022-08-13T05:58:55.557Z,100694.78
2022-08-13T06:04:31.696Z,100699.63
2022-08-13T06:09:24.224Z,100699.38
2022-08-13T06:14:35.928Z,100694.41
2022-08-13T06:19:45.195Z,100687.34
2022-08-13T06:24:56.008Z,100701.72
2022-08-13T06:29:59.714Z,100692.78
2022-08-13T06:35:05.348Z,100698.72
2022-08-13T06:40:25.021Z,100697.06
2022-08-13T06:45:37.214Z,100686.63
2022-08-13T06:50:46.794Z,100692.22
2022-08-13T06:56:20.340Z,100688.97
2022-08-13T07:01:18.429Z,100682.81
2022-08-13T07:06:25.711Z,100687.50
2022-08-13T07:11:38.397Z,100684.81
2022-08-13T07:16:43.421Z,100691.78
2022-08-13T07:21:47.404Z,100676.34
2022-08-13T07:26:49.936Z,100682.03
2022-08-13T07:32:00.236Z,100683.97
2022-08-13T07:37:08.589Z,100675.78
2022-08-13T07:42:11.689Z,100674.00
2022-08-13T07:47:17.340Z,100671.28
2022-08-13T07:52:28.255Z,100679.50
2022-08-13T07:57:38.377Z,100675.41
2022-08-13T08:02:47.072Z,100680.50
2022-08-13T08:08:06.102Z,100698.50
2022-08-13T08:13:11.466Z,100694.25
2022-08-13T08:18:35.066Z,100694.00
2022-08-13T08:23:48.213Z,100698.63
2022-08-13T08:28:53.304Z,100687.59
2022-08-13T08:34:02.040Z,100684.50
2022-08-13T08:39:37.811Z,100681.72
2022-08-13T08:44:46.771Z,100682.38
2022-08-13T08:49:52.771Z,100676.97
2022-08-13T08:55:12.331Z,100671.06
2022-08-13T09:00:25.001Z,100668.25
2022-08-13T09:05:44.702Z,100673.91
2022-08-13T09:10:50.146Z,100661.34
2022-08-13T09:15:52.981Z,100668.97
2022-08-13T09:20:55.561Z,100669.72
2022-08-13T09:25:59.845Z,100669.91
2022-08-13T09:31:02.331Z,100663.66
2022-08-13T09:36:07.459Z,100663.69
2022-08-13T09:41:20.040Z,100655.63
2022-08-13T09:46:27.776Z,100654.97
2022-08-13T09:51:55.603Z,100644.34
2022-08-13T09:56:59.502Z,100653.09
2022-08-13T10:02:08.481Z,100634.28
2022-08-13T10:07:20.710Z,100635.22
2022-08-13T10:12:25.207Z,100638.28
2022-08-13T10:17:43.205Z,100639.00
2022-08-13T10:22:54.320Z,100634.47
2022-08-13T10:27:59.620Z,100641.47
2022-08-13T10:33:03.632Z,100647.63
2022-08-13T10:38:09.774Z,100650.03
2022-08-13T10:43:22.211Z,100647.31
2022-08-13T10:48:28.258Z,100641.00
2022-08-13T10:53:48.289Z,100643.44
2022-08-13T10:58:52.572Z,100639.19
2022-08-13T11:04:03.847Z,100638.75
2022-08-13T11:09:24.267Z,100642.63
2022-08-13T11:14:35.383Z,100638.63
2022-08-13T11:19:48.726Z,100628.28
2022-08-13T11:24:56.360Z,100617.94
2022-08-13T11:30:01.093Z,100616.16
2022-08-13T11:35:03.586Z,100606.97
2022-08-13T11:40:30.070Z,100604.63
2022-08-13T11:45:43.997Z,100592.19
2022-08-13T11:50:47.531Z,100595.03
2022-08-13T11:55:56.905Z,100598.47
2022-08-13T12:01:09.574Z,100596.44
2022-08-13T12:06:12.705Z,100609.94
2022-08-13T12:11:18.665Z,100602.44
2022-08-13T12:16:35.293Z,100594.13
2022-08-13T12:21:42.613Z,100587.69
2022-08-13T12:26:45.422Z,100587.72
2022-08-13T12:31:59.394Z,100584.50
2022-08-13T12:37:05.345Z,100574.31
2022-08-13T12:42:28.392Z,100563.50
2022-08-13T12:47:32.551Z,100556.34
2022-08-13T12:52:35.337Z,100563.34
2022-08-13T12:58:03.144Z,100554.47
2022-08-13T13:03:06.794Z,100540.50
2022-08-13T13:08:30.246Z,100535.81
2022-08-13T13:13:53.911Z,100519.13
2022-08-13T13:19:03.217Z,100534.72
2022-08-13T13:24:16.690Z,100527.38
2022-08-13T13:29:21.056Z,100524.13
2022-08-13T13:34:25.860Z,100522.63
2022-08-13T13:39:29.108Z,100520.19
2022-08-13T13:44:38.325Z,100521.59
2022-08-13T13:49:44.157Z,100525.13
2022-08-13T13:54:57.445Z,100526.50
2022-08-13T14:00:02.047Z,100523.56
2022-08-13T14:05:37.689Z,100526.78
2022-08-13T14:10:32.090Z,100525.03
2022-08-13T14:15:35.417Z,100520.00
2022-08-13T14:20:41.849Z,100510.56
2022-08-13T14:25:55.313Z,100516.16
2022-08-13T14:30:59.139Z,100508.97
2022-08-13T14:36:03.354Z,100503.72
2022-08-13T14:41:16.469Z,100509.78
2022-08-13T14:46:20.653Z,100499.75
2022-08-13T14:51:28.975Z,100491.34
2022-08-13T14:56:51.472Z,100496.91
2022-08-13T15:01:57.401Z,100493.34
2022-08-13T15:07:01.227Z,100498.53
2022-08-13T15:12:04.474Z,100490.09
2022-08-13T15:17:17.690Z,100490.78
2022-08-13T15:22:25.444Z,100497.69
2022-08-13T15:27:34.311Z,100501.25
2022-08-13T15:32:54.493Z,100489.69
2022-08-13T15:38:00.187Z,100480.44
2022-08-13T15:43:09.404Z,100489.75
2022-08-13T15:48:18.523Z,100481.69
2022-08-13T15:53:27.292Z,100464.88
2022-08-13T15:58:34.272Z,100470.09
2022-08-13T16:03:39.264Z,100449.63
2022-08-13T16:08:53.687Z,100449.38
2022-08-13T16:13:56.602Z,100444.72
2022-08-13T16:18:59.194Z,100442.00
2022-08-13T16:24:10.889Z,100417.34
2022-08-13T16:29:14.039Z,100420.22
2022-08-13T16:34:19.985Z,100409.00
2022-08-13T16:39:24.336Z,100401.94
2022-08-13T16:44:37.849Z,100400.72
2022-08-13T16:49:42.421Z,100410.28
2022-08-13T16:54:46.489Z,100399.88
2022-08-13T16:59:49.307Z,100399.69
2022-08-13T17:05:17.143Z,100387.22
2022-08-13T17:10:24.472Z,100396.63
2022-08-13T17:15:27.173Z,100393.81
2022-08-13T17:20:36.259Z,100385.44
2022-08-13T17:25:40.546Z,100382.50
2022-08-13T17:30:44.797Z,100382.72
2022-08-13T17:35:47.341Z,100381.00
2022-08-13T17:40:53.007Z,100390.66
2022-08-13T17:45:59.421Z,100386.72
2022-08-13T17:51:08.384Z,100379.84
2022-08-13T17:56:14.153Z,100382.72
2022-08-13T18:01:24.017Z,100392.34
2022-08-13T18:06:36.987Z,100402.09
2022-08-13T18:11:43.972Z,100403.25
2022-08-13T18:17:05.473Z,100394.00
2022-08-13T18:22:09.419Z,100408.34
2022-08-13T18:27:18.812Z,100412.94
2022-08-13T18:32:27.366Z,100406.88
2022-08-13T18:37:37.751Z,100407.22
2022-08-13T18:42:43.264Z,100403.78
2022-08-13T18:47:46.113Z,100408.41
2022-08-13T18:52:49.332Z,100406.34
2022-08-13T18:58:13.015Z,100419.38
2022-08-13T19:03:15.725Z,100413.66
2022-08-13T19:08:22.522Z,100415.94
2022-08-13T19:13:26.560Z,100422.59
2022-08-13T19:18:32.263Z,100433.34
2022-08-13T19:23:35.810Z,100427.84
2022-08-13T19:28:56.711Z,100433.72
2022-08-13T19:34:03.454Z,100427.63
2022-08-13T19:39:11.785Z,100428.38
2022-08-13T19:44:34.009Z,100420.75
2022-08-13T19:49:55.231Z,100421.34
2022-08-13T19:55:00.259Z,100427.28
2022-08-13T20:00:13.918Z,100431.06
2022-08-13T20:05:22.791Z,100418.13
2022-08-13T20:10:27.671Z,100418.81
2022-08-13T20:15:32.397Z,100420.97
2022-08-13T20:20:35.952Z,100415.88
2022-08-13T20:25:47.191Z,100414.69
2022-08-13T20:31:02.611Z,100420.50
2022-08-13T20:36:06.867Z,100423.41
2022-08-13T20:41:09.759Z,100426.72
2022-08-13T20:46:15.550Z,100411.38
2022-08-13T20:51:21.013Z,100412.81
2022-08-13T20:56:42.068Z,100414.72
2022-08-13T21:01:47.654Z,100416.94
2022-08-13T21:06:58.374Z,100406.09
2022-08-13T21:12:01.282Z,100404.56
2022-08-13T21:17:08.312Z,100400.22
2022-08-13T21:22:13.070Z,100397.75
2022-08-13T21:28:36.022Z,100396.66
2022-08-13T21:32:53.167Z,100401.06
2022-08-13T21:37:57.254Z,100387.16
2022-08-13T21:43:07.564Z,100376.75
2022-08-13T21:48:13.741Z,100383.59
2022-08-13T21:53:27.489Z,100387.16
2022-08-13T21:58:43.252Z,100369.50
2022-08-13T22:04:01.712Z,100372.16
2022-08-13T22:09:16.571Z,100377.50
2022-08-13T22:14:19.947Z,100379.13
2022-08-13T22:19:24.144Z,100383.69
2022-08-13T22:24:26.692Z,100380.38
2022-08-13T22:29:46.916Z,100375.09
2022-08-13T22:34:56.697Z,100381.28
2022-08-13T22:40:00.373Z,100387.66
2022-08-13T22:45:03.433Z,100378.81
2022-08-13T22:50:12.269Z,100381.41
2022-08-13T22:55:15.154Z,100379.28
2022-08-13T23:00:17.900Z,100388.09
2022-08-13T23:05:22.351Z,100387.78
2022-08-13T23:10:29.002Z,100387.66
2022-08-13T23:15:33.467Z,100382.50
2022-08-13T23:20:39.521Z,100378.72
2022-08-13T23:25:46.086Z,100376.66
2022-08-13T23:30:51.163Z,100379.69
2022-08-13T23:35:57.678Z,100369.63
2022-08-13T23:41:00.539Z,100361.09
2022-08-13T23:46:03.900Z,100348.47
2022-08-13T23:51:09.449Z,100346.78
2022-08-13T23:56:11.956Z,100356.81
